Edenton, Ohio
Current Conditions -  °F | °C
As of 10:54 PM on Saturday 20 Dec 2014 (Local Time) from KILN Reporting Station
Haze Haze  
Wind Chill: 28°   Ceiling: 1700
Heat Index: 28°   Visibility: 5mi
Dew Point: 23°   Wind: 0mph
Humidity: 81%   Direction: NA
Pressure: 30.27"   Gusts: NA
Location:  39.2751°N, 84.0815°W
Report Text: KILN 210354Z AUTO 00000KT 5SM HZ BKN017 M02/M05 A3027 RMK AO2 SLP280 T10221050
Loading
Personal Weather Stations






























Interactive Weather Map New forecast layout! Learn more

10-Day Weather Forecast

Advertisements
Track Severe Weather on mobile